createdAt,value
2023-04-10T00:00:04.202Z,9.35
2023-04-10T00:02:31.467Z,8.98
2023-04-10T00:04:58.792Z,9.23
2023-04-10T00:07:26.589Z,8.63
2023-04-10T00:09:53.750Z,8.52
2023-04-10T00:12:20.971Z,7.63
2023-04-10T00:14:48.139Z,8.63
2023-04-10T00:17:15.531Z,8.15
2023-04-10T00:19:42.575Z,8.48
2023-04-10T00:22:09.631Z,7.90
2023-04-10T00:24:36.747Z,7.65
2023-04-10T00:27:03.874Z,8.32
2023-04-10T00:29:31.163Z,8.13
2023-04-10T00:31:58.358Z,8.40
2023-04-10T00:34:25.888Z,7.40
2023-04-10T00:36:52.785Z,7.70
2023-04-10T00:39:19.961Z,8.00
2023-04-10T00:41:46.862Z,7.45
2023-04-10T00:44:13.762Z,7.80
2023-04-10T00:46:41.461Z,7.53
2023-04-10T00:49:09.718Z,7.80
2023-04-10T00:51:39.704Z,7.63
2023-04-10T00:54:06.799Z,7.45
2023-04-10T00:56:33.967Z,7.45
2023-04-10T00:59:04.062Z,7.75
2023-04-10T01:01:32.064Z,7.25
2023-04-10T01:03:59.868Z,8.07
2023-04-10T01:06:41.970Z,7.53
2023-04-10T01:09:12.218Z,7.82
2023-04-10T01:11:54.709Z,7.13
2023-04-10T01:14:53.531Z,7.55
2023-04-10T01:17:48.929Z,7.15
2023-04-10T01:20:32.645Z,6.75
2023-04-10T01:23:02.494Z,7.10
2023-04-10T01:25:40.586Z,7.35
2023-04-10T01:28:19.593Z,6.88
2023-04-10T01:30:53.978Z,6.78
2023-04-10T01:33:22.848Z,6.57
2023-04-10T01:35:53.372Z,6.50
2023-04-10T01:38:24.292Z,6.47
2023-04-10T01:40:53.000Z,7.22
2023-04-10T01:43:22.357Z,7.03
2023-04-10T01:45:51.888Z,7.00
2023-04-10T01:48:19.541Z,6.40
2023-04-10T01:50:48.106Z,6.30
2023-04-10T01:53:15.946Z,6.63
2023-04-10T01:55:43.338Z,6.72
2023-04-10T01:58:10.707Z,6.35
2023-04-10T02:00:42.933Z,6.53
2023-04-10T02:03:11.018Z,6.03
2023-04-10T02:06:03.779Z,6.65
2023-04-10T02:08:57.435Z,6.63
2023-04-10T02:12:03.630Z,6.35
2023-04-10T02:14:32.750Z,6.80
2023-04-10T02:17:01.904Z,6.47
2023-04-10T02:19:31.302Z,6.80
2023-04-10T02:21:59.176Z,6.88
2023-04-10T02:24:26.351Z,6.25
2023-04-10T02:26:53.884Z,6.35
2023-04-10T02:29:20.718Z,6.25
2023-04-10T02:31:47.737Z,6.85
2023-04-10T02:34:14.775Z,6.45
2023-04-10T02:36:41.986Z,6.55
2023-04-10T02:39:09.144Z,6.20
2023-04-10T02:41:36.042Z,6.78
2023-04-10T02:44:02.898Z,6.65
2023-04-10T02:46:29.794Z,6.55
2023-04-10T02:48:56.883Z,6.22
2023-04-10T02:51:23.774Z,6.43
2023-04-10T02:53:53.141Z,6.55
2023-04-10T02:56:20.874Z,6.60
2023-04-10T02:58:47.993Z,5.95
2023-04-10T03:01:14.979Z,6.55
2023-04-10T03:03:42.007Z,5.60
2023-04-10T03:06:10.751Z,5.82
2023-04-10T03:08:37.653Z,6.15
2023-04-10T03:11:04.599Z,6.65
2023-04-10T03:13:31.468Z,6.22
2023-04-10T03:15:58.273Z,6.60
2023-04-10T03:18:25.419Z,6.18
2023-04-10T03:20:52.238Z,6.70
2023-04-10T03:23:19.032Z,6.10
2023-04-10T03:25:51.266Z,6.80
2023-04-10T03:28:18.550Z,6.70
2023-04-10T03:30:45.452Z,6.47
2023-04-10T03:33:12.452Z,5.72
2023-04-10T03:35:39.578Z,6.43
2023-04-10T03:38:06.611Z,6.88
2023-04-10T03:40:34.460Z,7.30
2023-04-10T03:43:01.773Z,6.88
2023-04-10T03:45:28.718Z,6.75
2023-04-10T03:47:56.029Z,6.32
2023-04-10T03:50:22.942Z,6.93
2023-04-10T03:52:49.855Z,6.93
2023-04-10T03:55:19.267Z,6.60
2023-04-10T03:57:49.721Z,6.93
2023-04-10T04:00:17.348Z,6.50
2023-04-10T04:02:44.538Z,6.60
2023-04-10T04:05:11.886Z,6.18
2023-04-10T04:07:38.795Z,6.72
2023-04-10T04:10:06.298Z,6.97
2023-04-10T04:12:33.224Z,7.15
2023-04-10T04:15:00.058Z,6.13
2023-04-10T04:17:27.061Z,6.53
2023-04-10T04:19:54.085Z,6.70
2023-04-10T04:22:21.179Z,6.82
2023-04-10T04:24:48.050Z,7.32
2023-04-10T04:27:14.859Z,6.93
2023-04-10T04:29:42.111Z,6.60
2023-04-10T04:32:09.127Z,7.38
2023-04-10T04:34:36.033Z,7.38
2023-04-10T04:37:03.122Z,7.28
2023-04-10T04:39:29.919Z,6.72
2023-04-10T04:41:56.825Z,6.70
2023-04-10T04:44:23.721Z,6.63
2023-04-10T04:46:50.689Z,6.68
2023-04-10T04:49:17.477Z,7.25
2023-04-10T04:51:44.274Z,7.35
2023-04-10T04:54:11.205Z,7.30
2023-04-10T04:56:38.071Z,6.57
2023-04-10T04:59:05.270Z,7.35
2023-04-10T05:01:32.351Z,7.32
2023-04-10T05:03:59.322Z,7.22
2023-04-10T05:06:26.561Z,7.72
2023-04-10T05:08:53.723Z,6.80
2023-04-10T05:11:20.756Z,8.07
2023-04-10T05:13:47.564Z,7.05
2023-04-10T05:16:14.735Z,7.57
2023-04-10T05:18:41.916Z,7.50
2023-04-10T05:21:08.772Z,6.97
2023-04-10T05:23:36.805Z,8.05
2023-04-10T05:26:03.729Z,7.18
2023-04-10T05:28:30.865Z,7.28
2023-04-10T05:30:57.711Z,7.63
2023-04-10T05:33:24.615Z,8.27
2023-04-10T05:35:53.589Z,7.55
2023-04-10T05:38:20.977Z,7.40
2023-04-10T05:40:48.241Z,7.47
2023-04-10T05:43:15.356Z,7.88
2023-04-10T05:45:45.332Z,7.63
2023-04-10T05:48:12.363Z,7.45
2023-04-10T05:50:39.347Z,7.50
2023-04-10T05:53:06.312Z,7.70
2023-04-10T05:55:33.391Z,7.57
2023-04-10T05:58:00.568Z,7.32
2023-04-10T06:00:27.572Z,7.35
2023-04-10T06:02:54.811Z,7.38
2023-04-10T06:05:22.152Z,7.65
2023-04-10T06:07:49.099Z,7.35
2023-04-10T06:10:19.142Z,7.85
2023-04-10T06:12:46.800Z,8.43
2023-04-10T06:15:13.889Z,8.05
2023-04-10T06:17:44.730Z,8.32
2023-04-10T06:20:12.118Z,7.95
2023-04-10T06:22:39.046Z,7.32
2023-04-10T06:25:06.636Z,8.25
2023-04-10T06:27:36.286Z,7.60
2023-04-10T06:30:03.579Z,7.72
2023-04-10T06:32:30.661Z,7.68
2023-04-10T06:34:57.794Z,7.30
2023-04-10T06:37:32.742Z,7.20
2023-04-10T06:40:05.510Z,8.13
2023-04-10T06:42:32.893Z,7.50
2023-04-10T06:45:00.292Z,7.93
2023-04-10T06:47:27.401Z,7.28
2023-04-10T06:49:54.393Z,7.22
2023-04-10T06:52:21.440Z,7.40
2023-04-10T06:54:48.303Z,7.00
2023-04-10T06:57:16.040Z,6.93
2023-04-10T06:59:43.160Z,7.70
2023-04-10T07:02:10.527Z,7.07
2023-04-10T07:04:38.157Z,7.43
2023-04-10T07:07:09.745Z,7.13
2023-04-10T07:09:36.987Z,7.80
2023-04-10T07:12:04.096Z,7.78
2023-04-10T07:14:32.648Z,7.28
2023-04-10T07:16:59.642Z,6.88
2023-04-10T07:19:26.557Z,6.88
2023-04-10T07:21:53.380Z,7.10
2023-04-10T07:24:20.269Z,7.05
2023-04-10T07:26:47.246Z,8.13
2023-04-10T07:29:14.342Z,6.82
2023-04-10T07:31:42.020Z,7.07
2023-04-10T07:34:10.184Z,6.78
2023-04-10T07:36:37.298Z,6.65
2023-04-10T07:39:04.402Z,7.13
2023-04-10T07:41:31.564Z,7.22
2023-04-10T07:43:58.677Z,7.15
2023-04-10T07:46:26.726Z,7.03
2023-04-10T07:48:55.629Z,6.72
2023-04-10T07:51:22.988Z,7.00
2023-04-10T07:53:50.051Z,6.95
2023-04-10T07:56:20.901Z,7.18
2023-04-10T07:58:48.208Z,6.07
2023-04-10T08:01:15.856Z,6.22
2023-04-10T08:03:45.705Z,6.55
2023-04-10T08:06:13.218Z,6.57
2023-04-10T08:08:41.678Z,6.90
2023-04-10T08:11:28.036Z,6.38
2023-04-10T08:13:57.231Z,6.90
2023-04-10T08:16:26.532Z,6.07
2023-04-10T08:18:55.116Z,6.70
2023-04-10T08:21:22.656Z,7.15
2023-04-10T08:23:57.667Z,6.00
2023-04-10T08:26:26.502Z,5.88
2023-04-10T08:28:56.589Z,6.72
2023-04-10T08:31:25.634Z,6.47
2023-04-10T08:33:53.305Z,6.65
2023-04-10T08:36:20.759Z,6.25
2023-04-10T08:38:48.375Z,6.20
2023-04-10T08:41:17.342Z,6.30
2023-04-10T08:43:46.215Z,6.15
2023-04-10T08:46:17.244Z,6.05
2023-04-10T08:48:44.222Z,5.82
2023-04-10T08:51:20.077Z,5.97
2023-04-10T08:53:51.249Z,5.70
2023-04-10T08:56:19.203Z,6.20
2023-04-10T08:58:46.487Z,6.30
2023-04-10T09:01:13.869Z,5.82
2023-04-10T09:03:41.799Z,6.10
2023-04-10T09:06:13.991Z,6.35
2023-04-10T09:08:41.248Z,5.72
2023-04-10T09:11:08.322Z,6.22
2023-04-10T09:13:43.782Z,6.13
2023-04-10T09:16:12.385Z,5.70
2023-04-10T09:18:51.315Z,5.63
2023-04-10T09:21:22.280Z,6.22
2023-04-10T09:23:49.715Z,6.18
2023-04-10T09:26:31.117Z,5.20
2023-04-10T09:29:04.082Z,5.90
2023-04-10T09:31:36.402Z,5.95
2023-04-10T09:34:18.273Z,5.40
2023-04-10T09:36:57.142Z,5.50
2023-04-10T09:39:43.490Z,5.50
2023-04-10T09:42:15.005Z,5.55
2023-04-10T09:44:42.570Z,5.45
2023-04-10T09:47:18.597Z,5.72
2023-04-10T09:49:53.621Z,5.90
2023-04-10T09:52:26.502Z,4.53
2023-04-10T09:54:55.285Z,5.20
2023-04-10T09:57:24.094Z,5.22
2023-04-10T09:59:56.634Z,5.03
2023-04-10T10:02:25.942Z,5.75
2023-04-10T10:04:53.632Z,5.43
2023-04-10T10:07:23.434Z,5.53
2023-04-10T10:09:52.618Z,5.18
2023-04-10T10:12:30.606Z,5.38
2023-04-10T10:15:01.708Z,5.25
2023-04-10T10:17:35.094Z,5.10
2023-04-10T10:20:09.469Z,5.38
2023-04-10T10:22:37.980Z,5.57
2023-04-10T10:25:05.242Z,5.05
2023-04-10T10:27:33.748Z,5.43
2023-04-10T10:30:05.448Z,4.75
2023-04-10T10:32:40.711Z,4.85
2023-04-10T10:35:08.589Z,4.90
2023-04-10T10:37:36.344Z,5.18
2023-04-10T10:40:27.323Z,5.05
2023-04-10T10:43:08.396Z,5.38
2023-04-10T10:45:46.934Z,5.50
2023-04-10T10:48:14.744Z,5.50
2023-04-10T10:50:59.414Z,6.03
2023-04-10T10:53:46.542Z,5.88
2023-04-10T10:56:19.593Z,5.90
2023-04-10T10:58:55.904Z,6.60
2023-04-10T11:01:23.676Z,6.78
2023-04-10T11:03:51.297Z,6.65
2023-04-10T11:06:22.743Z,6.88
2023-04-10T11:08:53.157Z,7.18
2023-04-10T11:11:23.290Z,6.97
2023-04-10T11:13:50.417Z,7.68
2023-04-10T11:16:17.812Z,7.18
2023-04-10T11:18:59.240Z,7.38
2023-04-10T11:21:34.282Z,7.00
2023-04-10T11:24:01.401Z,7.80
2023-04-10T11:26:38.340Z,7.90
2023-04-10T11:29:06.234Z,7.70
2023-04-10T11:31:34.406Z,7.97
2023-04-10T11:34:03.974Z,7.65
2023-04-10T11:36:32.341Z,7.97
2023-04-10T11:39:06.011Z,8.52
2023-04-10T11:41:35.451Z,7.63
2023-04-10T11:44:04.993Z,7.75
2023-04-10T11:46:35.877Z,7.30
2023-04-10T11:49:04.266Z,7.38
2023-04-10T11:51:31.941Z,7.32
2023-04-10T11:54:13.007Z,7.50
2023-04-10T11:56:43.348Z,7.93
2023-04-10T11:59:16.240Z,8.13
2023-04-10T12:01:43.718Z,8.05
2023-04-10T12:04:17.999Z,8.77
2023-04-10T12:06:49.310Z,8.48
2023-04-10T12:09:17.497Z,8.05
2023-04-10T12:11:52.003Z,8.40
2023-04-10T12:14:20.730Z,8.90
2023-04-10T12:16:49.568Z,8.95
2023-04-10T12:19:18.088Z,8.75
2023-04-10T12:21:46.628Z,8.43
2023-04-10T12:24:13.964Z,8.50
2023-04-10T12:26:51.237Z,8.40
2023-04-10T12:29:18.204Z,8.18
2023-04-10T12:31:45.284Z,8.45
2023-04-10T12:34:19.038Z,8.70
2023-04-10T12:36:53.699Z,8.60
2023-04-10T12:39:25.055Z,9.50
2023-04-10T12:41:52.076Z,7.07
2023-04-10T12:44:20.677Z,7.35
2023-04-10T12:46:47.835Z,8.20
2023-04-10T12:49:17.002Z,7.20
2023-04-10T12:51:52.514Z,6.40
2023-04-10T12:54:29.377Z,7.20
2023-04-10T12:56:56.538Z,6.78
2023-04-10T12:59:24.692Z,6.75
2023-04-10T13:01:51.912Z,6.20
2023-04-10T13:04:19.004Z,6.38
2023-04-10T13:06:47.287Z,5.68
2023-04-10T13:09:15.174Z,5.60
2023-04-10T13:11:43.668Z,5.80
2023-04-10T13:14:11.537Z,5.45
2023-04-10T13:16:38.981Z,5.32
2023-04-10T13:19:06.089Z,5.45
2023-04-10T13:21:32.963Z,5.38
2023-04-10T13:23:59.866Z,5.65
2023-04-10T13:26:26.705Z,6.13
2023-04-10T13:28:54.049Z,6.13
2023-04-10T13:31:21.207Z,5.45
2023-04-10T13:33:48.509Z,5.22
2023-04-10T13:36:15.872Z,6.07
2023-04-10T13:38:43.220Z,5.68
2023-04-10T13:41:10.153Z,5.70
2023-04-10T13:43:37.693Z,5.72
2023-04-10T13:46:05.651Z,7.15
2023-04-10T13:48:40.190Z,7.07
2023-04-10T13:51:08.552Z,6.97
2023-04-10T13:53:35.933Z,7.57
2023-04-10T13:56:02.760Z,7.78
2023-04-10T13:58:32.001Z,8.82
2023-04-10T14:00:59.320Z,8.10
2023-04-10T14:03:26.443Z,9.63
2023-04-10T14:05:53.948Z,9.30
2023-04-10T14:08:20.843Z,10.13
2023-04-10T14:10:51.455Z,9.60
2023-04-10T14:13:19.155Z,10.40
2023-04-10T14:15:46.191Z,10.68
2023-04-10T14:18:17.424Z,10.52
2023-04-10T14:20:44.778Z,11.15
2023-04-10T14:23:18.412Z,11.27
2023-04-10T14:25:46.525Z,12.38
2023-04-10T14:28:17.682Z,11.93
2023-04-10T14:30:51.669Z,12.35
2023-04-10T14:33:20.079Z,12.90
2023-04-10T14:35:47.850Z,12.70
2023-04-10T14:38:15.889Z,12.95
2023-04-10T14:40:43.884Z,12.35
2023-04-10T14:43:10.945Z,12.27
2023-04-10T14:45:37.775Z,12.10
2023-04-10T14:48:05.038Z,12.40
2023-04-10T14:50:32.851Z,12.48
2023-04-10T14:53:00.565Z,13.00
2023-04-10T14:55:29.872Z,12.90
2023-04-10T14:57:58.584Z,11.55
2023-04-10T15:00:26.527Z,9.85
2023-04-10T15:02:53.752Z,9.55
2023-04-10T15:05:22.126Z,10.43
2023-04-10T15:07:49.160Z,10.70
2023-04-10T15:10:16.185Z,9.30
2023-04-10T15:12:43.192Z,7.68
2023-04-10T15:15:10.686Z,7.78
2023-04-10T15:17:38.267Z,7.25
2023-04-10T15:20:06.905Z,5.80
2023-04-10T15:22:35.696Z,5.57
2023-04-10T15:25:02.926Z,4.25
2023-04-10T15:27:29.946Z,3.95
2023-04-10T15:29:58.765Z,4.18
2023-04-10T15:32:25.781Z,4.47
2023-04-10T15:34:52.633Z,4.93
2023-04-10T15:37:19.546Z,5.03
2023-04-10T15:39:46.689Z,4.90
2023-04-10T15:42:15.932Z,4.40
2023-04-10T15:44:46.386Z,4.80
2023-04-10T15:47:14.389Z,3.80
2023-04-10T15:49:41.395Z,3.92
2023-04-10T15:52:08.666Z,3.53
2023-04-10T15:54:35.972Z,2.72
2023-04-10T15:57:03.719Z,2.75
2023-04-10T15:59:30.949Z,2.15
2023-04-10T16:01:57.835Z,2.55
2023-04-10T16:04:25.107Z,2.58
2023-04-10T16:06:52.061Z,2.13
2023-04-10T16:11:50.177Z,2.90
2023-04-10T16:14:19.150Z,2.80
2023-04-10T16:16:46.774Z,3.08
2023-04-10T16:19:13.704Z,3.65
2023-04-10T16:21:40.728Z,3.53
2023-04-10T16:24:07.882Z,2.67
2023-04-10T16:26:34.814Z,2.15
2023-04-10T16:29:01.864Z,2.40
2023-04-10T16:31:29.113Z,1.92
2023-04-10T16:33:56.607Z,2.20
2023-04-10T16:36:23.685Z,2.58
2023-04-10T16:38:50.606Z,2.45
2023-04-10T16:41:18.545Z,2.83
2023-04-10T16:43:45.670Z,2.80
2023-04-10T16:46:12.813Z,2.88
2023-04-10T16:48:40.158Z,3.25
2023-04-10T16:51:08.997Z,3.38
2023-04-10T16:53:36.367Z,3.10
2023-04-10T16:56:05.091Z,3.47
2023-04-10T16:58:33.979Z,2.95
2023-04-10T17:01:01.018Z,3.08
2023-04-10T17:03:28.018Z,3.20
2023-04-10T17:05:55.253Z,2.75
2023-04-10T17:08:22.081Z,2.53
2023-04-10T17:10:49.012Z,2.30
2023-04-10T17:13:15.873Z,2.25
2023-04-10T17:15:42.813Z,3.28
2023-04-10T17:18:10.129Z,2.97
2023-04-10T17:20:37.322Z,3.17
2023-04-10T17:23:04.739Z,4.38
2023-04-10T17:25:31.887Z,3.60
2023-04-10T17:27:58.910Z,3.20
2023-04-10T17:30:25.976Z,3.33
2023-04-10T17:32:53.438Z,3.03
2023-04-10T17:35:20.357Z,2.58
2023-04-10T17:37:47.369Z,3.47
2023-04-10T17:40:14.634Z,3.10
2023-04-10T17:42:41.514Z,3.15
2023-04-10T17:45:08.837Z,3.30
2023-04-10T17:47:36.100Z,3.10
2023-04-10T17:50:06.506Z,4.00
2023-04-10T17:52:33.677Z,3.55
2023-04-10T17:55:01.707Z,3.30
2023-04-10T17:57:28.938Z,3.33
2023-04-10T17:59:55.979Z,3.42
2023-04-10T18:02:22.900Z,3.53
2023-04-10T18:04:49.816Z,3.67
2023-04-10T18:07:16.844Z,2.90
2023-04-10T18:09:45.561Z,3.10
2023-04-10T18:12:12.565Z,3.50
2023-04-10T18:14:39.714Z,3.33
2023-04-10T18:17:06.722Z,4.10
2023-04-10T18:19:34.271Z,4.97
2023-04-10T18:22:01.341Z,4.30
2023-04-10T18:24:31.927Z,4.53
2023-04-10T18:26:58.860Z,3.67
2023-04-10T18:29:26.463Z,3.75
2023-04-10T18:31:53.379Z,3.78
2023-04-10T18:34:20.653Z,3.80
2023-04-10T18:36:47.462Z,3.63
2023-04-10T18:39:14.550Z,4.38
2023-04-10T18:41:41.465Z,3.20
2023-04-10T18:44:08.766Z,3.67
2023-04-10T18:46:36.021Z,2.92
2023-04-10T18:49:03.627Z,3.60
2023-04-10T18:51:33.906Z,4.10
2023-04-10T18:54:03.015Z,3.97
2023-04-10T18:56:30.309Z,3.75
2023-04-10T18:58:57.888Z,4.25
2023-04-10T19:01:24.935Z,3.85
2023-04-10T19:03:53.887Z,3.78
2023-04-10T19:06:24.678Z,4.88
2023-04-10T19:08:51.919Z,3.85
2023-04-10T19:11:19.137Z,4.32
2023-04-10T19:13:46.282Z,4.07
2023-04-10T19:16:14.837Z,3.80
2023-04-10T19:18:42.161Z,5.28
2023-04-10T19:21:09.200Z,6.18
2023-04-10T19:23:36.158Z,8.20
2023-04-10T19:26:04.394Z,6.10
2023-04-10T19:28:32.650Z,9.65
2023-04-10T19:30:59.964Z,9.93
2023-04-10T19:33:27.465Z,7.63
2023-04-10T19:35:54.392Z,4.80
2023-04-10T19:38:21.331Z,4.25
2023-04-10T19:40:48.315Z,4.00
2023-04-10T19:43:15.316Z,3.97
2023-04-10T19:45:42.406Z,5.03
2023-04-10T19:48:09.778Z,3.72
2023-04-10T19:50:36.696Z,3.53
2023-04-10T19:53:05.147Z,3.95
2023-04-10T19:55:32.011Z,3.42
2023-04-10T19:57:59.003Z,3.92
2023-04-10T20:00:26.090Z,3.35
2023-04-10T20:02:53.216Z,3.25
2023-04-10T20:05:20.424Z,2.92
2023-04-10T20:07:47.742Z,3.33
2023-04-10T20:10:14.549Z,4.20
2023-04-10T20:12:41.396Z,4.03
2023-04-10T20:15:09.324Z,3.53
2023-04-10T20:17:36.403Z,3.83
2023-04-10T20:20:03.635Z,3.78
2023-04-10T20:22:31.593Z,4.82
2023-04-10T20:24:58.570Z,4.20
2023-04-10T20:27:25.647Z,4.18
2023-04-10T20:29:52.628Z,3.45
2023-04-10T20:32:19.483Z,4.55
2023-04-10T20:34:47.554Z,4.20
2023-04-10T20:37:18.868Z,4.03
2023-04-10T20:39:45.845Z,3.83
2023-04-10T20:42:12.797Z,4.22
2023-04-10T20:44:39.690Z,4.63
2023-04-10T20:47:07.361Z,4.57
2023-04-10T20:49:34.367Z,5.97
2023-04-10T20:52:01.320Z,4.15
2023-04-10T20:54:28.204Z,4.18
2023-04-10T20:56:56.952Z,3.60
2023-04-10T20:59:24.150Z,4.25
2023-04-10T21:01:51.503Z,5.43
2023-04-10T21:04:18.545Z,5.20
2023-04-10T21:06:45.656Z,4.20
2023-04-10T21:09:12.706Z,4.22
2023-04-10T21:11:39.659Z,4.97
2023-04-10T21:14:06.818Z,5.18
2023-04-10T21:16:37.601Z,5.00
2023-04-10T21:19:04.818Z,5.65
2023-04-10T21:21:31.897Z,5.13
2023-04-10T21:23:58.772Z,4.70
2023-04-10T21:26:25.834Z,4.60
2023-04-10T21:28:53.153Z,5.50
2023-04-10T21:31:20.574Z,4.93
2023-04-10T21:33:47.600Z,5.80
2023-04-10T21:36:14.450Z,4.88
2023-04-10T21:38:41.518Z,4.60
2023-04-10T21:41:08.305Z,5.68
2023-04-10T21:43:35.592Z,4.72
2023-04-10T21:46:03.175Z,5.47
2023-04-10T21:48:30.512Z,4.95
2023-04-10T21:50:57.553Z,6.68
2023-04-10T21:53:24.430Z,5.15
2023-04-10T21:55:52.272Z,4.68
2023-04-10T21:58:19.446Z,5.25
2023-04-10T22:00:47.441Z,5.75
2023-04-10T22:03:16.280Z,5.68
2023-04-10T22:05:43.821Z,4.97
2023-04-10T22:08:10.976Z,4.93
2023-04-10T22:10:38.153Z,5.47
2023-04-10T22:13:05.227Z,5.28
2023-04-10T22:15:32.205Z,4.72
2023-04-10T22:17:59.500Z,5.93
2023-04-10T22:20:26.540Z,5.93
2023-04-10T22:22:53.415Z,5.15
2023-04-10T22:25:20.403Z,6.18
2023-04-10T22:27:48.483Z,5.03
2023-04-10T22:30:15.637Z,5.07
2023-04-10T22:32:42.459Z,5.13
2023-04-10T22:35:09.395Z,4.57
2023-04-10T22:37:36.202Z,5.30
2023-04-10T22:40:03.285Z,4.57
2023-04-10T22:42:31.950Z,5.15
2023-04-10T22:44:59.338Z,5.28
2023-04-10T22:47:27.085Z,5.55
2023-04-10T22:49:54.243Z,5.43
2023-04-10T22:52:21.145Z,5.95
2023-04-10T22:54:48.035Z,5.95
2023-04-10T22:57:14.873Z,4.95
2023-04-10T22:59:41.957Z,5.40
2023-04-10T23:02:09.060Z,4.55
2023-04-10T23:04:36.154Z,5.13
2023-04-10T23:07:03.085Z,5.68
2023-04-10T23:09:30.048Z,6.35
2023-04-10T23:11:57.026Z,5.55
2023-04-10T23:14:24.018Z,4.80
2023-04-10T23:16:51.055Z,5.00
2023-04-10T23:19:18.928Z,4.93
2023-04-10T23:21:46.014Z,5.20
2023-04-10T23:24:13.027Z,4.72
2023-04-10T23:26:39.880Z,5.28
2023-04-10T23:29:06.921Z,4.75
2023-04-10T23:31:36.245Z,5.25
2023-04-10T23:34:03.916Z,6.47
2023-04-10T23:36:31.586Z,4.78
2023-04-10T23:38:58.572Z,5.00
2023-04-10T23:41:25.777Z,5.65
2023-04-10T23:43:52.758Z,4.93
2023-04-10T23:46:19.798Z,4.57
2023-04-10T23:48:46.787Z,4.75
2023-04-10T23:51:13.779Z,5.72
2023-04-10T23:53:40.653Z,5.25
2023-04-10T23:56:07.991Z,4.30
2023-04-10T23:58:34.947Z,4.45
